KSEM/SEM METAR and TAF weather

Enter ICAO airport designator
Station Type Date Time Source
KSEM METAR 2019/06/17 14:35 UTC NOAA

KSEM 171435Z AUTO VRB05KT 5SM HZ 29/22 A3002 RMK AO2


Station Type Date Time Source
KSEM Decoded METAR 2019/06/17 14:35 UTC NOAA

Craig Field / Selma, AL, United States (KSEM) 32-21N 086-59W
Jun 17, 2019 - 10:35 AM EDT / 2019.06.17 1435 UTC
Wind: Variable at 6 MPH (5 KT):0
Visibility: 5 mile(s):0
Weather: haze
Temperature: 84 F (29 C)
Dew Point: 71 F (22 C)
Relative Humidity: 65%
Pressure (altimeter): 30.02 in. Hg (1016 hPa)
ob: KSEM 171435Z AUTO VRB05KT 5SM HZ 29/22 A3002 RMK AO2
cycle: 14

Station Type Date Time Source
KSEM TAF UTC NOAA

Error!

Example: see airport list